Terminal Aerodrome Forecast
Issued by NWS

Home | Current Version | Previous Version | Text Only | Print | Product List | Glossary On
Versions: 1 2 3 4 5 6 7 8 9 10 11 12 13 14 15 16 17 18 19 20 21
000
FTUS43 KDLH 261245 AAB
TAFHYR
TAF AMD
KHYR 261245Z 2613/2712 04010G23KT 5SM -FZRA BR OVC008
     FM261500 04010G21KT 2SM -FZRA OVC006
     FM261800 02010G21KT P6SM VCSH OVC008
     FM270100 02007KT P6SM VCSH OVC008
     FM270600 01004KT P6SM OVC003
     FM271100 34004KT P6SM OVC008=

USA.gov is the U.S. government's official web portal to all federal, state and local government web resources and services.